createdAt,value
2023-01-01T00:00:13.472Z,19.10
2023-01-01T00:01:12.380Z,10.80
2023-01-01T00:02:02.387Z,7.70
2023-01-01T00:02:38.219Z,6.60
2023-01-01T00:03:11.656Z,4.70
2023-01-01T00:03:49.954Z,5.30
2023-01-01T00:04:23.505Z,5.10
2023-01-01T00:04:57.007Z,6.00
2023-01-01T00:05:30.412Z,6.00
2023-01-01T00:06:08.974Z,5.30
2023-01-01T00:06:44.015Z,5.30
2023-01-01T00:07:17.431Z,5.50
2023-01-01T00:07:50.982Z,5.40
2023-01-01T00:08:24.416Z,4.90
2023-01-01T00:09:16.539Z,9.40
2023-01-01T00:10:08.577Z,17.40
2023-01-01T00:10:42.291Z,7.30
2023-01-01T00:11:15.979Z,5.80
2023-01-01T00:11:49.469Z,5.90
2023-01-01T00:12:22.779Z,6.50
2023-01-01T00:13:00.333Z,5.80
2023-01-01T00:13:35.582Z,5.80
2023-01-01T00:14:12.459Z,5.10
2023-01-01T00:14:46.405Z,5.30
2023-01-01T00:15:22.228Z,5.60
2023-01-01T00:15:55.839Z,5.30
2023-01-01T00:16:29.809Z,4.90
2023-01-01T00:17:03.338Z,5.50
2023-01-01T00:17:36.987Z,5.10
2023-01-01T00:18:10.589Z,5.40
2023-01-01T00:18:43.922Z,4.60
2023-01-01T00:19:17.717Z,4.80
2023-01-01T00:19:51.139Z,4.90
2023-01-01T00:20:28.702Z,5.10
2023-01-01T00:21:13.737Z,5.50
2023-01-01T00:21:47.493Z,5.60
2023-01-01T00:22:53.444Z,5.30
2023-01-01T00:23:14.806Z,5.40
2023-01-01T00:23:48.415Z,5.40
2023-01-01T00:24:22.053Z,6.00
2023-01-01T00:24:55.437Z,5.70
2023-01-01T00:25:28.848Z,5.50
2023-01-01T00:26:09.195Z,6.00
2023-01-01T00:26:42.647Z,6.10
2023-01-01T00:27:16.002Z,6.00
2023-01-01T00:27:49.616Z,5.90
2023-01-01T00:28:23.100Z,9.00
2023-01-01T00:28:56.561Z,7.80
2023-01-01T00:29:30.030Z,8.50
2023-01-01T00:30:04.506Z,6.10
2023-01-01T00:30:40.043Z,8.20
2023-01-01T00:31:20.098Z,146.60
2023-01-01T00:31:53.629Z,297.90
2023-01-01T00:32:27.233Z,419.20
2023-01-01T00:33:00.599Z,468.70
2023-01-01T00:33:34.130Z,404.90
2023-01-01T00:34:10.027Z,123.40
2023-01-01T00:34:43.464Z,89.60
2023-01-01T00:35:16.806Z,256.40
2023-01-01T00:35:50.203Z,301.70
2023-01-01T00:36:26.040Z,268.20
2023-01-01T00:36:59.482Z,120.40
2023-01-01T00:37:32.899Z,200.70
2023-01-01T00:38:07.318Z,229.20
2023-01-01T00:38:41.871Z,117.10
2023-01-01T00:39:15.450Z,78.20
2023-01-01T00:39:48.864Z,66.30
2023-01-01T00:40:22.873Z,78.60
2023-01-01T00:40:56.274Z,71.90
2023-01-01T00:41:29.653Z,47.80
2023-01-01T00:42:03.233Z,49.20
2023-01-01T00:42:40.383Z,16.70
2023-01-01T00:43:13.734Z,7.60
2023-01-01T00:43:47.098Z,7.50
2023-01-01T00:44:20.504Z,7.00
2023-01-01T00:44:53.917Z,6.70
2023-01-01T00:45:27.371Z,6.90
2023-01-01T00:46:00.799Z,7.50
2023-01-01T00:46:34.386Z,9.40
2023-01-01T00:47:07.878Z,8.80
2023-01-01T00:47:41.243Z,15.30
2023-01-01T00:48:14.655Z,15.40
2023-01-01T00:48:48.159Z,18.20
2023-01-01T00:49:21.507Z,14.40
2023-01-01T00:49:54.921Z,7.60
2023-01-01T00:50:28.423Z,6.40
2023-01-01T00:51:02.337Z,5.80
2023-01-01T00:51:37.269Z,6.90
2023-01-01T00:52:10.882Z,7.90
2023-01-01T00:52:44.338Z,7.40
2023-01-01T00:53:18.093Z,7.20
2023-01-01T00:53:51.480Z,7.30
2023-01-01T00:54:24.907Z,7.10
2023-01-01T00:54:58.290Z,8.20
2023-01-01T00:55:31.590Z,8.00
2023-01-01T00:56:05.992Z,6.60
2023-01-01T00:56:39.547Z,7.30
2023-01-01T00:57:13.082Z,9.20
2023-01-01T00:57:46.576Z,8.30
2023-01-01T00:58:20.626Z,9.30
2023-01-01T00:59:00.874Z,8.80
2023-01-01T00:59:35.586Z,7.60
2023-01-01T01:00:10.288Z,6.90
2023-01-01T01:00:44.283Z,7.80
2023-01-01T01:01:18.054Z,9.50
2023-01-01T01:01:51.808Z,7.10
2023-01-01T01:02:25.408Z,10.40
2023-01-01T01:03:00.655Z,13.60
2023-01-01T01:03:36.561Z,10.60
2023-01-01T01:04:11.350Z,10.90
2023-01-01T01:04:44.777Z,7.50
2023-01-01T01:05:19.998Z,8.00
2023-01-01T01:05:54.262Z,7.20
2023-01-01T01:06:27.803Z,6.50
2023-01-01T01:07:01.354Z,6.10
2023-01-01T01:07:40.032Z,7.40
2023-01-01T01:08:13.738Z,8.40
2023-01-01T01:08:48.255Z,16.10
2023-01-01T01:09:21.662Z,9.10
2023-01-01T01:09:55.105Z,12.20
2023-01-01T01:10:28.554Z,9.50
2023-01-01T01:11:19.053Z,12.30
2023-01-01T01:11:52.491Z,26.80
2023-01-01T01:12:51.730Z,21.60
2023-01-01T01:13:27.212Z,17.50
2023-01-01T01:14:00.761Z,18.40
2023-01-01T01:14:34.232Z,24.80
2023-01-01T01:15:09.269Z,8.10
2023-01-01T01:15:42.846Z,7.70
2023-01-01T01:16:22.786Z,7.20
2023-01-01T01:16:56.802Z,11.10
2023-01-01T01:17:30.184Z,10.90
2023-01-01T01:18:04.113Z,10.20
2023-01-01T01:18:37.776Z,9.30
2023-01-01T01:19:15.802Z,6.50
2023-01-01T01:19:49.199Z,7.70
2023-01-01T01:20:22.679Z,9.00
2023-01-01T01:20:56.224Z,10.90
2023-01-01T01:21:32.311Z,28.10
2023-01-01T01:22:06.740Z,25.00
2023-01-01T01:22:41.086Z,24.30
2023-01-01T01:23:14.533Z,17.30
2023-01-01T01:23:48.878Z,14.10
2023-01-01T01:24:22.591Z,27.10
2023-01-01T01:24:56.962Z,43.40
2023-01-01T01:25:31.195Z,30.90
2023-01-01T01:26:16.687Z,21.10
2023-01-01T01:26:50.292Z,23.50
2023-01-01T01:27:24.304Z,28.00
2023-01-01T01:27:57.886Z,21.20
2023-01-01T01:28:31.268Z,24.30
2023-01-01T01:29:06.122Z,21.00
2023-01-01T01:29:39.716Z,14.40
2023-01-01T01:30:13.311Z,29.40
2023-01-01T01:30:46.920Z,46.60
2023-01-01T01:31:22.784Z,271.80
2023-01-01T01:31:56.322Z,204.30
2023-01-01T01:32:29.720Z,397.80
2023-01-01T01:33:03.263Z,553.90
2023-01-01T01:33:37.132Z,559.20
2023-01-01T01:34:15.930Z,522.20
2023-01-01T01:34:49.950Z,230.70
2023-01-01T01:35:23.470Z,375.20
2023-01-01T01:35:56.852Z,314.60
2023-01-01T01:36:30.396Z,396.70
2023-01-01T01:37:05.253Z,353.90
2023-01-01T01:37:38.903Z,434.10
2023-01-01T01:38:12.319Z,39.30
2023-01-01T01:38:46.274Z,40.70
2023-01-01T01:39:20.234Z,269.80
2023-01-01T01:39:54.378Z,264.50
2023-01-01T01:40:27.939Z,72.80
2023-01-01T01:41:01.615Z,68.40
2023-01-01T01:41:35.574Z,22.30
2023-01-01T01:42:17.967Z,11.00
2023-01-01T01:42:52.915Z,20.40
2023-01-01T01:43:49.848Z,17.80
2023-01-01T01:44:45.164Z,11.10
2023-01-01T01:45:19.760Z,57.00
2023-01-01T01:46:12.166Z,156.70
2023-01-01T01:46:45.985Z,83.00
2023-01-01T01:47:56.083Z,84.00
2023-01-01T01:48:32.189Z,117.50
2023-01-01T01:49:31.229Z,123.50
2023-01-01T01:50:14.934Z,80.80
2023-01-01T01:50:52.648Z,65.30
2023-01-01T01:51:37.168Z,63.30
2023-01-01T01:52:11.133Z,125.00
2023-01-01T01:53:15.979Z,64.60
2023-01-01T01:53:54.822Z,85.80
2023-01-01T01:54:29.629Z,33.80
2023-01-01T01:55:06.497Z,23.60
2023-01-01T01:55:46.395Z,11.50
2023-01-01T01:56:47.081Z,7.80
2023-01-01T01:57:21.814Z,8.20
2023-01-01T01:57:55.583Z,6.30
2023-01-01T01:58:31.086Z,5.80
2023-01-01T01:59:04.619Z,8.60
2023-01-01T01:59:47.147Z,10.10
2023-01-01T02:00:21.489Z,8.90
2023-01-01T02:00:55.656Z,9.30
2023-01-01T02:01:29.669Z,8.50
2023-01-01T02:02:03.878Z,7.20
2023-01-01T02:02:55.948Z,7.40
2023-01-01T02:03:37.583Z,6.30
2023-01-01T02:04:12.440Z,6.50
2023-01-01T02:04:45.953Z,6.50
2023-01-01T02:05:21.050Z,6.50
2023-01-01T02:05:55.068Z,6.60
2023-01-01T02:06:30.637Z,6.70
2023-01-01T02:07:04.603Z,6.70
2023-01-01T02:07:38.338Z,7.50
2023-01-01T02:08:14.868Z,7.00
2023-01-01T02:08:50.419Z,7.00
2023-01-01T02:09:23.984Z,7.30
2023-01-01T02:09:58.477Z,7.30
2023-01-01T02:10:33.228Z,7.30
2023-01-01T02:11:06.887Z,7.70
2023-01-01T02:11:45.213Z,7.40
2023-01-01T02:12:18.614Z,7.40
2023-01-01T02:12:52.082Z,7.40
2023-01-01T02:13:25.574Z,8.00
2023-01-01T02:14:00.765Z,7.50
2023-01-01T02:14:34.253Z,7.40
2023-01-01T02:15:08.837Z,7.70
2023-01-01T02:16:05.663Z,7.70
2023-01-01T02:16:47.825Z,7.30
2023-01-01T02:17:59.583Z,7.20
2023-01-01T02:19:15.146Z,6.10
2023-01-01T02:20:03.925Z,6.80
2023-01-01T02:20:58.475Z,6.70
2023-01-01T02:21:41.629Z,6.20
2023-01-01T02:22:15.761Z,6.50
2023-01-01T02:23:15.520Z,6.60
2023-01-01T02:24:26.137Z,6.10
2023-01-01T02:25:24.358Z,6.40
2023-01-01T02:26:18.638Z,6.60
2023-01-01T02:27:10.438Z,6.50
2023-01-01T02:28:36.629Z,7.00
2023-01-01T02:29:27.958Z,6.60
2023-01-01T02:30:06.159Z,7.00
2023-01-01T02:30:43.217Z,7.00
2023-01-01T02:31:28.202Z,6.10
2023-01-01T02:32:14.723Z,6.70
2023-01-01T02:32:57.276Z,7.00
2023-01-01T02:33:33.569Z,7.40
2023-01-01T02:34:15.206Z,7.30
2023-01-01T02:34:55.348Z,5.60
2023-01-01T02:35:34.894Z,6.00
2023-01-01T02:36:11.361Z,6.10
2023-01-01T02:36:51.098Z,6.30
2023-01-01T02:37:28.710Z,6.30
2023-01-01T02:38:17.517Z,5.90
2023-01-01T02:38:55.972Z,5.90
2023-01-01T02:39:34.991Z,4.40
2023-01-01T02:40:09.006Z,4.40
2023-01-01T02:40:47.766Z,4.70
2023-01-01T02:41:27.532Z,4.60
2023-01-01T02:42:03.631Z,5.20
2023-01-01T02:42:37.101Z,4.80
2023-01-01T02:43:10.572Z,5.20
2023-01-01T02:43:45.512Z,5.10
2023-01-01T02:44:22.808Z,5.00
2023-01-01T02:44:58.638Z,4.30
2023-01-01T02:45:32.830Z,4.10
2023-01-01T02:46:10.866Z,4.30
2023-01-01T02:46:46.029Z,4.50
2023-01-01T02:47:20.980Z,3.80
2023-01-01T02:47:54.754Z,4.20
2023-01-01T02:48:45.277Z,3.60
2023-01-01T02:51:38.003Z,3.20
2023-01-01T02:52:51.321Z,3.20
2023-01-01T02:53:32.872Z,3.10
2023-01-01T02:54:18.628Z,3.10
2023-01-01T02:55:34.190Z,3.50
2023-01-01T02:56:23.713Z,3.20
2023-01-01T02:57:31.149Z,4.00
2023-01-01T02:58:42.669Z,4.30
2023-01-01T02:59:47.967Z,4.80
2023-01-01T03:00:29.875Z,5.10
2023-01-01T03:01:28.556Z,5.90
2023-01-01T03:02:17.458Z,6.00
2023-01-01T03:03:09.261Z,7.00
2023-01-01T03:03:56.837Z,6.20
2023-01-01T03:04:50.456Z,6.50
2023-01-01T03:05:28.773Z,6.40
2023-01-01T03:06:23.369Z,6.80
2023-01-01T03:07:16.218Z,6.40
2023-01-01T03:08:07.631Z,5.90
2023-01-01T03:08:57.294Z,6.20
2023-01-01T03:09:38.157Z,6.40
2023-01-01T03:10:20.853Z,6.70
2023-01-01T03:11:07.922Z,6.60
2023-01-01T03:11:47.358Z,6.70
2023-01-01T03:12:40.744Z,6.30
2023-01-01T03:13:28.056Z,6.10
2023-01-01T03:14:19.023Z,6.80
2023-01-01T03:15:07.344Z,6.50
2023-01-01T03:15:49.260Z,6.30
2023-01-01T03:16:31.828Z,6.90
2023-01-01T03:17:28.274Z,6.50
2023-01-01T03:18:11.142Z,6.20
2023-01-01T03:19:12.999Z,6.40
2023-01-01T03:19:49.469Z,6.10
2023-01-01T03:20:28.818Z,6.40
2023-01-01T03:21:05.968Z,6.60
2023-01-01T03:21:51.479Z,6.50
2023-01-01T03:23:16.228Z,6.60
2023-01-01T03:23:54.944Z,6.70
2023-01-01T03:24:44.291Z,6.40
2023-01-01T03:25:27.327Z,6.30
2023-01-01T03:26:05.439Z,6.80
2023-01-01T03:26:40.991Z,6.30
2023-01-01T03:27:20.767Z,6.40
2023-01-01T03:27:59.603Z,6.20
2023-01-01T03:28:40.247Z,5.90
2023-01-01T03:29:13.983Z,6.00
2023-01-01T03:29:53.114Z,5.90
2023-01-01T03:30:28.946Z,6.00
2023-01-01T03:31:03.857Z,6.20
2023-01-01T03:31:41.140Z,6.00
2023-01-01T03:32:21.585Z,6.30
2023-01-01T03:33:04.029Z,6.40
2023-01-01T03:33:45.138Z,6.00
2023-01-01T03:34:36.431Z,6.40
2023-01-01T03:35:10.931Z,6.30
2023-01-01T03:35:51.747Z,6.50
2023-01-01T03:36:31.718Z,6.00
2023-01-01T03:37:11.215Z,6.40
2023-01-01T03:37:50.242Z,6.80
2023-01-01T03:38:46.180Z,6.50
2023-01-01T03:39:25.343Z,6.00
2023-01-01T03:39:59.929Z,6.20
2023-01-01T03:40:37.810Z,6.60
2023-01-01T03:41:16.083Z,5.80
2023-01-01T03:41:58.699Z,6.20
2023-01-01T03:42:38.505Z,5.90
2023-01-01T03:43:21.703Z,6.60
2023-01-01T03:44:44.557Z,6.30
2023-01-01T03:45:23.316Z,5.70
2023-01-01T03:45:59.598Z,5.90
2023-01-01T03:46:37.918Z,5.90
2023-01-01T03:47:11.714Z,5.90
2023-01-01T03:47:46.470Z,5.90
2023-01-01T03:48:19.902Z,5.30
2023-01-01T03:49:03.196Z,6.10
2023-01-01T03:49:37.477Z,5.30
2023-01-01T03:50:11.555Z,6.00
2023-01-01T03:51:11.949Z,5.70
2023-01-01T03:52:03.296Z,5.50
2023-01-01T03:52:55.623Z,5.50
2023-01-01T03:53:44.704Z,5.80
2023-01-01T03:54:34.988Z,6.20
2023-01-01T03:55:14.578Z,5.70
2023-01-01T03:56:02.095Z,5.50
2023-01-01T03:56:45.797Z,5.80
2023-01-01T03:57:43.198Z,5.70
2023-01-01T03:58:27.808Z,5.20
2023-01-01T03:59:06.719Z,5.10
2023-01-01T03:59:52.829Z,5.40
2023-01-01T04:00:34.208Z,5.60
2023-01-01T04:01:25.514Z,5.30
2023-01-01T04:02:02.841Z,5.20
2023-01-01T04:02:50.834Z,4.90
2023-01-01T04:03:28.347Z,4.90
2023-01-01T04:04:05.570Z,4.90
2023-01-01T04:04:41.173Z,5.00
2023-01-01T04:05:15.721Z,4.30
2023-01-01T04:05:49.071Z,4.00
2023-01-01T04:06:22.644Z,4.40
2023-01-01T04:07:14.298Z,4.50
2023-01-01T04:08:22.363Z,4.10
2023-01-01T04:08:59.607Z,4.30
2023-01-01T04:09:37.414Z,4.10
2023-01-01T04:10:20.126Z,4.50
2023-01-01T04:10:58.080Z,4.60
2023-01-01T04:11:52.411Z,4.50
2023-01-01T04:12:26.780Z,4.20
2023-01-01T04:13:04.560Z,4.50
2023-01-01T04:13:48.308Z,4.80
2023-01-01T04:14:33.457Z,4.10
2023-01-01T04:15:09.241Z,4.60
2023-01-01T04:15:42.812Z,4.90
2023-01-01T04:16:16.298Z,5.70
2023-01-01T04:16:49.892Z,4.70
2023-01-01T04:17:23.453Z,5.20
2023-01-01T04:17:57.187Z,5.10
2023-01-01T04:18:30.590Z,5.30
2023-01-01T04:19:07.199Z,5.30
2023-01-01T04:19:40.565Z,5.10
2023-01-01T04:20:14.982Z,5.50
2023-01-01T04:20:48.985Z,5.30
2023-01-01T04:21:22.317Z,5.70
2023-01-01T04:21:56.041Z,7.00
2023-01-01T04:22:29.465Z,4.60
2023-01-01T04:23:03.217Z,4.50
2023-01-01T04:23:36.586Z,6.20
2023-01-01T04:24:10.393Z,14.60
2023-01-01T04:24:45.642Z,12.40
2023-01-01T04:25:19.167Z,8.00
2023-01-01T04:25:52.369Z,12.90
2023-01-01T04:26:25.805Z,13.50
2023-01-01T04:26:59.277Z,4.30
2023-01-01T04:27:33.890Z,4.70
2023-01-01T04:28:07.250Z,3.40
2023-01-01T04:28:42.189Z,4.50
2023-01-01T04:29:15.703Z,3.60
2023-01-01T04:29:49.078Z,3.50
2023-01-01T04:30:22.732Z,3.30
2023-01-01T04:31:28.573Z,5.00
2023-01-01T04:32:02.039Z,4.10
2023-01-01T04:32:35.564Z,3.30
2023-01-01T04:33:09.620Z,3.00
2023-01-01T04:33:43.084Z,3.40
2023-01-01T04:34:16.944Z,3.00
2023-01-01T04:34:50.529Z,2.80
2023-01-01T04:35:24.007Z,2.90
2023-01-01T04:35:57.430Z,3.20
2023-01-01T04:36:30.873Z,3.30
2023-01-01T04:37:08.327Z,2.90
2023-01-01T04:37:46.480Z,3.50
2023-01-01T04:38:20.101Z,3.20
2023-01-01T04:38:55.445Z,3.40
2023-01-01T04:39:29.291Z,3.70
2023-01-01T04:40:03.653Z,3.90
2023-01-01T04:40:37.257Z,3.30
2023-01-01T04:41:11.954Z,3.60
2023-01-01T04:41:47.312Z,3.50
2023-01-01T04:42:20.854Z,3.40
2023-01-01T04:42:54.687Z,3.30
2023-01-01T04:43:28.622Z,3.00
2023-01-01T04:44:02.337Z,3.20
2023-01-01T04:44:36.007Z,3.20
2023-01-01T04:45:12.487Z,2.80
2023-01-01T04:45:55.934Z,2.90
2023-01-01T04:46:29.607Z,2.80
2023-01-01T04:47:03.440Z,2.80
2023-01-01T04:47:37.013Z,2.50
2023-01-01T04:48:10.535Z,2.50
2023-01-01T04:48:47.124Z,2.60
2023-01-01T04:49:21.071Z,2.70
2023-01-01T04:49:54.806Z,2.90
2023-01-01T04:50:28.291Z,3.10
2023-01-01T04:51:04.802Z,3.00
2023-01-01T04:51:38.302Z,3.40
2023-01-01T04:52:11.798Z,3.00
2023-01-01T04:52:47.312Z,3.50
2023-01-01T04:53:20.735Z,3.50
2023-01-01T04:53:54.203Z,3.70
2023-01-01T04:54:27.490Z,4.00
2023-01-01T04:55:01.003Z,3.90
2023-01-01T04:55:34.457Z,3.50
2023-01-01T04:56:19.413Z,3.60
2023-01-01T04:56:52.932Z,3.70
2023-01-01T04:57:26.244Z,3.60
2023-01-01T04:57:59.674Z,3.50
2023-01-01T04:58:34.348Z,4.00
2023-01-01T04:59:08.407Z,3.80
2023-01-01T04:59:42.321Z,3.70
2023-01-01T05:00:16.233Z,3.80
2023-01-01T05:00:51.044Z,3.80
2023-01-01T05:01:27.379Z,3.40
2023-01-01T05:02:01.171Z,3.30
2023-01-01T05:02:34.954Z,3.40
2023-01-01T05:03:08.385Z,3.70
2023-01-01T05:03:41.865Z,3.80
2023-01-01T05:04:17.197Z,3.80
2023-01-01T05:04:50.531Z,3.60
2023-01-01T05:05:23.841Z,3.50
2023-01-01T05:06:11.881Z,3.50
2023-01-01T05:06:45.243Z,3.30
2023-01-01T05:07:18.651Z,3.60
2023-01-01T05:07:52.034Z,3.70
2023-01-01T05:08:25.331Z,3.50
2023-01-01T05:09:01.291Z,3.60
2023-01-01T05:09:34.661Z,3.80
2023-01-01T05:10:08.588Z,3.60
2023-01-01T05:10:43.050Z,3.20
2023-01-01T05:11:19.184Z,3.40
2023-01-01T05:11:54.912Z,3.20
2023-01-01T05:12:30.350Z,3.00
2023-01-01T05:13:07.469Z,2.90
2023-01-01T05:13:42.962Z,3.00
2023-01-01T05:14:16.413Z,2.30
2023-01-01T05:14:49.791Z,2.60
2023-01-01T05:15:23.192Z,2.60
2023-01-01T05:15:56.959Z,2.50
2023-01-01T05:16:33.887Z,2.50
2023-01-01T05:17:07.346Z,2.70
2023-01-01T05:17:40.793Z,2.60
2023-01-01T05:18:14.269Z,2.70
2023-01-01T05:18:48.740Z,2.70
2023-01-01T05:19:22.292Z,2.80
2023-01-01T05:19:55.687Z,2.80
2023-01-01T05:20:28.992Z,3.00
2023-01-01T05:21:04.403Z,3.10
2023-01-01T05:21:40.664Z,3.20
2023-01-01T05:22:14.037Z,3.30
2023-01-01T05:22:47.659Z,3.10
2023-01-01T05:23:21.595Z,3.40
2023-01-01T05:24:09.283Z,3.30
2023-01-01T05:24:43.890Z,3.00
2023-01-01T05:25:17.343Z,2.90
2023-01-01T05:25:50.800Z,2.70
2023-01-01T05:26:27.424Z,2.30
2023-01-01T05:27:00.879Z,2.90
2023-01-01T05:27:34.224Z,2.60
2023-01-01T05:28:07.586Z,2.70
2023-01-01T05:28:41.349Z,2.80
2023-01-01T05:29:16.950Z,2.80
2023-01-01T05:29:50.819Z,2.70
2023-01-01T05:30:25.663Z,3.00
2023-01-01T05:30:58.979Z,2.60
2023-01-01T05:31:34.994Z,2.70
2023-01-01T05:32:43.348Z,2.20
2023-01-01T05:33:16.748Z,2.30
2023-01-01T05:33:52.789Z,2.50
2023-01-01T05:34:27.626Z,2.70
2023-01-01T05:35:01.131Z,2.70
2023-01-01T05:35:34.664Z,2.70
2023-01-01T05:36:09.471Z,60.90
2023-01-01T05:36:44.372Z,91.40
2023-01-01T05:37:17.720Z,23.60
2023-01-01T05:37:52.149Z,79.10
2023-01-01T05:38:25.569Z,170.90
2023-01-01T05:38:59.353Z,33.20
2023-01-01T05:39:35.330Z,13.30
2023-01-01T05:40:09.498Z,13.40
2023-01-01T05:40:43.169Z,8.10
2023-01-01T05:41:18.103Z,3.10
2023-01-01T05:41:52.103Z,6.40
2023-01-01T05:42:25.453Z,6.90
2023-01-01T05:42:59.116Z,4.40
2023-01-01T05:43:32.449Z,3.00
2023-01-01T05:44:09.125Z,3.60
2023-01-01T05:44:42.675Z,2.10
2023-01-01T05:45:16.043Z,2.30
2023-01-01T05:45:49.444Z,2.40
2023-01-01T05:46:24.877Z,2.30
2023-01-01T05:46:58.570Z,2.40
2023-01-01T05:47:32.019Z,2.40
2023-01-01T05:48:07.351Z,2.40
2023-01-01T05:48:40.833Z,2.00
2023-01-01T05:49:14.359Z,1.90
2023-01-01T05:49:47.729Z,2.10
2023-01-01T05:50:21.130Z,2.00
2023-01-01T05:50:54.880Z,2.00
2023-01-01T05:51:30.266Z,1.80
2023-01-01T05:52:03.934Z,2.20
2023-01-01T05:52:37.274Z,2.00
2023-01-01T05:53:13.410Z,2.00
2023-01-01T05:53:47.415Z,2.10
2023-01-01T05:54:20.745Z,2.10
2023-01-01T05:54:54.016Z,2.00
2023-01-01T05:55:27.468Z,2.20
2023-01-01T05:56:01.609Z,2.10
2023-01-01T05:56:35.007Z,2.00
2023-01-01T05:57:08.428Z,2.30
2023-01-01T05:57:41.878Z,2.40
2023-01-01T05:58:15.159Z,2.20
2023-01-01T05:58:49.047Z,2.00
2023-01-01T05:59:22.524Z,2.30
2023-01-01T05:59:55.916Z,2.60
2023-01-01T06:00:29.241Z,2.20
2023-01-01T06:01:26.859Z,2.50
2023-01-01T06:02:02.122Z,2.10
2023-01-01T06:02:35.598Z,2.60
2023-01-01T06:03:09.214Z,2.80
2023-01-01T06:03:43.800Z,2.40
2023-01-01T06:04:17.343Z,2.30
2023-01-01T06:04:50.891Z,2.50
2023-01-01T06:05:24.296Z,2.40
2023-01-01T06:05:57.619Z,2.70
2023-01-01T06:06:33.926Z,2.40
2023-01-01T06:07:07.334Z,2.60
2023-01-01T06:07:46.430Z,2.90
2023-01-01T06:08:21.565Z,2.10
2023-01-01T06:08:57.370Z,2.20
2023-01-01T06:09:30.690Z,2.40
2023-01-01T06:10:05.816Z,2.50
2023-01-01T06:10:39.371Z,2.70
2023-01-01T06:11:13.042Z,2.50
2023-01-01T06:11:46.373Z,2.70
2023-01-01T06:12:19.714Z,2.40
2023-01-01T06:12:58.839Z,2.80
2023-01-01T06:13:33.129Z,2.80
2023-01-01T06:14:06.629Z,2.60
2023-01-01T06:14:40.340Z,2.80
2023-01-01T06:15:13.749Z,2.70
2023-01-01T06:15:54.369Z,3.00
2023-01-01T06:16:29.940Z,3.20
2023-01-01T06:17:03.408Z,3.30
2023-01-01T06:17:36.799Z,3.30
2023-01-01T06:18:10.207Z,3.50
2023-01-01T06:18:44.240Z,3.60
2023-01-01T06:19:17.576Z,3.20
2023-01-01T06:19:51.027Z,3.50
2023-01-01T06:20:24.487Z,3.70
2023-01-01T06:21:14.591Z,3.60
2023-01-01T06:21:48.020Z,3.30
2023-01-01T06:22:22.446Z,3.30
2023-01-01T06:22:55.843Z,3.60
2023-01-01T06:23:29.188Z,3.20
2023-01-01T06:24:02.554Z,3.40
2023-01-01T06:24:39.065Z,3.20
2023-01-01T06:25:13.300Z,2.90
2023-01-01T06:25:46.654Z,3.00
2023-01-01T06:26:24.005Z,2.90
2023-01-01T06:26:57.489Z,3.10
2023-01-01T06:27:30.919Z,2.90
2023-01-01T06:28:04.396Z,3.30
2023-01-01T06:28:38.208Z,3.20
2023-01-01T06:29:11.568Z,3.00
2023-01-01T06:29:44.910Z,3.10
2023-01-01T06:30:18.354Z,3.60
2023-01-01T06:30:51.710Z,3.60
2023-01-01T06:31:25.633Z,3.10
2023-01-01T06:31:59.026Z,3.10
2023-01-01T06:32:32.656Z,3.00
2023-01-01T06:33:06.272Z,2.70
2023-01-01T06:33:40.548Z,3.40
2023-01-01T06:34:14.042Z,3.10
2023-01-01T06:34:47.909Z,3.30
2023-01-01T06:35:21.288Z,3.10
2023-01-01T06:35:54.750Z,2.70
2023-01-01T06:36:28.139Z,2.80
2023-01-01T06:37:06.662Z,2.50
2023-01-01T06:37:40.597Z,2.70
2023-01-01T06:38:13.940Z,2.90
2023-01-01T06:38:49.941Z,2.80
2023-01-01T06:39:23.352Z,2.80
2023-01-01T06:39:56.803Z,2.90
2023-01-01T06:40:30.200Z,2.60
2023-01-01T06:41:06.361Z,2.80
2023-01-01T06:41:39.748Z,3.30
2023-01-01T06:42:13.177Z,2.90
2023-01-01T06:42:46.551Z,2.70
2023-01-01T06:43:19.980Z,2.90
2023-01-01T06:43:56.376Z,3.50
2023-01-01T06:44:29.674Z,3.00
2023-01-01T06:45:03.069Z,2.40
2023-01-01T06:45:37.534Z,2.90
2023-01-01T06:46:25.286Z,2.40
2023-01-01T06:46:58.848Z,2.30
2023-01-01T06:47:35.808Z,3.00
2023-01-01T06:48:09.170Z,2.80
2023-01-01T06:48:42.841Z,2.90
2023-01-01T06:49:16.204Z,2.70
2023-01-01T06:49:49.550Z,2.70
2023-01-01T06:50:22.885Z,2.80
2023-01-01T06:50:56.551Z,2.70
2023-01-01T06:51:32.543Z,2.90
2023-01-01T06:52:06.068Z,2.60
2023-01-01T06:52:39.450Z,2.50
2023-01-01T06:53:12.843Z,3.00
2023-01-01T06:53:47.259Z,2.60
2023-01-01T06:54:20.687Z,2.60
2023-01-01T06:54:55.154Z,2.90
2023-01-01T06:55:28.526Z,2.40
2023-01-01T06:56:02.403Z,2.80
2023-01-01T06:56:36.407Z,2.90
2023-01-01T06:57:09.961Z,2.60
2023-01-01T06:57:43.410Z,3.00
2023-01-01T06:58:16.810Z,3.20
2023-01-01T06:58:50.293Z,3.00
2023-01-01T06:59:23.742Z,2.90
2023-01-01T06:59:57.291Z,2.70
2023-01-01T07:00:30.617Z,3.30
2023-01-01T07:01:10.899Z,3.00
2023-01-01T07:01:45.089Z,2.50
2023-01-01T07:02:18.829Z,2.70
2023-01-01T07:02:52.424Z,3.00
2023-01-01T07:03:26.037Z,2.90
2023-01-01T07:04:04.452Z,2.70
2023-01-01T07:04:38.348Z,2.70
2023-01-01T07:05:11.727Z,3.10
2023-01-01T07:05:45.127Z,2.80
2023-01-01T07:06:18.618Z,2.80
2023-01-01T07:06:51.961Z,3.10
2023-01-01T07:07:27.841Z,2.60
2023-01-01T07:08:03.267Z,2.40
2023-01-01T07:08:37.654Z,2.70
2023-01-01T07:09:11.924Z,2.70
2023-01-01T07:09:45.272Z,2.30
2023-01-01T07:10:18.637Z,2.60
2023-01-01T07:10:51.886Z,2.80
2023-01-01T07:11:26.272Z,2.50
2023-01-01T07:11:59.739Z,2.60
2023-01-01T07:12:33.298Z,3.20
2023-01-01T07:13:06.855Z,2.70
2023-01-01T07:13:40.327Z,2.70
2023-01-01T07:14:13.926Z,2.80
2023-01-01T07:14:47.992Z,2.90
2023-01-01T07:15:21.446Z,2.80
2023-01-01T07:15:55.556Z,2.80
2023-01-01T07:16:29.013Z,2.90
2023-01-01T07:17:02.475Z,3.10
2023-01-01T07:17:35.783Z,2.90
2023-01-01T07:18:09.536Z,3.00
2023-01-01T07:18:43.050Z,3.30
2023-01-01T07:19:16.400Z,2.70
2023-01-01T07:19:49.724Z,2.90
2023-01-01T07:20:23.059Z,2.90
2023-01-01T07:20:59.140Z,3.20
2023-01-01T07:21:32.426Z,3.10
2023-01-01T07:22:05.880Z,3.10
2023-01-01T07:22:40.704Z,3.10
2023-01-01T07:23:14.053Z,2.90
2023-01-01T07:23:50.395Z,2.80
2023-01-01T07:24:23.861Z,2.80
2023-01-01T07:24:57.238Z,3.10
2023-01-01T07:25:30.603Z,3.10
2023-01-01T07:26:03.968Z,3.00
2023-01-01T07:26:37.378Z,3.10
2023-01-01T07:27:10.710Z,3.00
2023-01-01T07:27:44.124Z,3.20
2023-01-01T07:28:17.536Z,3.10
2023-01-01T07:28:50.912Z,3.20
2023-01-01T07:29:24.226Z,3.20
2023-01-01T07:29:57.535Z,3.10
2023-01-01T07:30:30.983Z,3.20
2023-01-01T07:31:04.899Z,3.50
2023-01-01T07:31:40.723Z,3.10
2023-01-01T07:32:14.414Z,3.20
2023-01-01T07:32:47.761Z,3.00
2023-01-01T07:33:23.429Z,2.90
2023-01-01T07:33:56.768Z,3.30
2023-01-01T07:34:30.178Z,3.10
2023-01-01T07:35:03.587Z,2.80
2023-01-01T07:35:36.954Z,3.10
2023-01-01T07:36:10.680Z,3.10
2023-01-01T07:36:44.059Z,3.00
2023-01-01T07:37:17.461Z,2.90
2023-01-01T07:37:50.858Z,3.10
2023-01-01T07:38:24.190Z,3.00
2023-01-01T07:38:57.509Z,3.00
2023-01-01T07:39:30.892Z,3.10
2023-01-01T07:40:04.551Z,2.90
2023-01-01T07:40:38.018Z,3.20
2023-01-01T07:41:11.498Z,2.90
2023-01-01T07:41:45.534Z,2.50
2023-01-01T07:42:19.929Z,2.90
2023-01-01T07:42:53.267Z,2.80
2023-01-01T07:43:26.595Z,2.90
2023-01-01T07:44:00.158Z,2.80
2023-01-01T07:44:33.490Z,2.80
2023-01-01T07:45:08.233Z,2.90
2023-01-01T07:45:41.764Z,2.70
2023-01-01T07:46:16.839Z,3.00
2023-01-01T07:46:50.297Z,2.80
2023-01-01T07:47:26.022Z,2.40
2023-01-01T07:48:00.835Z,2.50
2023-01-01T07:48:39.754Z,2.50
2023-01-01T07:49:13.779Z,2.40
2023-01-01T07:49:47.114Z,2.70
2023-01-01T07:50:21.505Z,2.70
2023-01-01T07:50:54.793Z,2.70
2023-01-01T07:51:28.193Z,2.30
2023-01-01T07:52:01.519Z,2.50
2023-01-01T07:52:34.876Z,2.50
2023-01-01T07:53:08.588Z,2.60
2023-01-01T07:53:42.070Z,2.60
2023-01-01T07:54:15.462Z,2.50
2023-01-01T07:54:48.935Z,2.50
2023-01-01T07:55:22.682Z,2.20
2023-01-01T07:55:56.005Z,2.60
2023-01-01T07:56:29.424Z,2.20
2023-01-01T07:57:02.787Z,2.70
2023-01-01T07:57:36.192Z,2.60
2023-01-01T07:58:11.396Z,2.40
2023-01-01T07:58:44.696Z,2.70
2023-01-01T07:59:20.459Z,2.40
2023-01-01T07:59:54.188Z,2.30
2023-01-01T08:00:28.600Z,2.30
2023-01-01T08:01:02.258Z,2.40
2023-01-01T08:01:37.725Z,2.20
2023-01-01T08:02:13.073Z,2.60
2023-01-01T08:02:46.970Z,2.20
2023-01-01T08:03:20.471Z,2.90
2023-01-01T08:03:54.631Z,2.40
2023-01-01T08:04:27.976Z,2.60
2023-01-01T08:05:02.130Z,2.10
2023-01-01T08:05:36.067Z,2.60
2023-01-01T08:06:11.548Z,2.40
2023-01-01T08:06:44.917Z,2.60
2023-01-01T08:07:18.259Z,2.20
2023-01-01T08:07:51.902Z,2.30
2023-01-01T08:08:25.204Z,2.30
2023-01-01T08:08:58.519Z,2.30
2023-01-01T08:09:32.009Z,2.30
2023-01-01T08:10:07.444Z,2.20
2023-01-01T08:10:40.885Z,2.10
2023-01-01T08:11:14.273Z,2.40
2023-01-01T08:11:47.663Z,2.20